Dummer, New Hampshire
Current Conditions -  °F | °C
As of 7:52 PM on Tuesday 25 Nov 2014 (Local Time) from KBML Reporting Station
Clear Clear  
Wind Chill: 32°   Ceiling: Unl
Heat Index: 32°   Visibility: 10mi
Dew Point: 24°   Wind: 0mph
Humidity: 73%   Direction: NA
Pressure: 29.94"   Gusts: NA
Location:  44.6084°N, 71.1109°W
Report Text: KBML 260052Z AUTO 00000KT 10SM CLR 00/M04 A2994 RMK AO2 SLP149 T00001044
Loading
Personal Weather Stations






























Interactive Weather Map New forecast layout! Learn more

10-Day Weather Forecast

Advertisements
Track Severe Weather on mobile